createdAt,value
2019-03-27T00:04:00.762Z,3.50
2019-03-27T00:09:06.745Z,4.00
2019-03-27T00:14:11.595Z,2.60
2019-03-27T00:19:16.356Z,4.00
2019-03-27T00:24:21.084Z,2.40
2019-03-27T00:29:25.752Z,2.00
2019-03-27T00:34:30.348Z,3.25
2019-03-27T00:39:35.179Z,4.00
2019-03-27T00:44:40.328Z,2.25
2019-03-27T00:50:25.541Z,2.00
2019-03-27T00:55:30.312Z,3.00
2019-03-27T01:01:02.306Z,3.25
2019-03-27T01:06:07.332Z,3.25
2019-03-27T01:11:12.025Z,2.00
2019-03-27T01:16:16.763Z,2.00
2019-03-27T01:21:21.473Z,2.50
2019-03-27T01:26:26.053Z,2.00
2019-03-27T01:31:30.795Z,2.00
2019-03-27T01:36:35.340Z,2.60
2019-03-27T01:41:39.996Z,2.00
2019-03-27T01:46:44.713Z,1.00
2019-03-27T01:51:49.291Z,1.00
2019-03-27T01:56:53.886Z,2.00
2019-03-27T02:01:58.505Z,2.00
2019-03-27T02:07:03.115Z,2.00
2019-03-27T02:12:07.739Z,2.00
2019-03-27T02:17:12.625Z,2.50
2019-03-27T02:22:17.199Z,2.50
2019-03-27T02:27:21.778Z,2.00
2019-03-27T02:32:26.444Z,2.75
2019-03-27T02:37:31.009Z,2.50
2019-03-27T02:42:35.732Z,2.00
2019-03-27T02:47:40.344Z,2.20
2019-03-27T02:52:45.062Z,2.00
2019-03-27T02:57:49.745Z,2.00
2019-03-27T03:02:54.352Z,2.00
2019-03-27T03:07:58.942Z,0.60
2019-03-27T03:13:03.694Z,2.00
2019-03-27T03:18:09.428Z,2.25
2019-03-27T03:23:14.006Z,2.80
2019-03-27T03:28:18.765Z,1.00
2019-03-27T03:33:23.374Z,1.50
2019-03-27T03:38:28.031Z,2.00
2019-03-27T03:43:32.737Z,1.00
2019-03-27T03:48:37.330Z,1.75
2019-03-27T03:53:41.989Z,1.60
2019-03-27T03:58:48.728Z,2.00
2019-03-27T04:03:55.356Z,1.00
2019-03-27T04:08:59.895Z,1.00
2019-03-27T04:14:04.583Z,2.50
2019-03-27T04:19:09.311Z,2.00
2019-03-27T04:24:13.967Z,2.00
2019-03-27T04:29:18.548Z,2.00
2019-03-27T04:34:23.132Z,1.00
2019-03-27T04:39:27.702Z,1.00
2019-03-27T04:44:32.319Z,0.00
2019-03-27T04:49:36.952Z,2.75
2019-03-27T04:54:41.538Z,1.50
2019-03-27T04:59:46.151Z,1.00
2019-03-27T05:04:50.937Z,1.40
2019-03-27T05:09:55.528Z,2.25
2019-03-27T05:15:00.247Z,2.00
2019-03-27T05:20:06.299Z,0.20
2019-03-27T05:25:11.006Z,2.40
2019-03-27T05:30:19.432Z,2.00
2019-03-27T05:35:24.150Z,1.40
2019-03-27T05:40:28.820Z,2.00
2019-03-27T05:45:33.528Z,1.80
2019-03-27T05:50:38.233Z,2.00
2019-03-27T05:55:42.833Z,2.00
2019-03-27T06:00:47.450Z,1.80
2019-03-27T06:05:52.129Z,0.40
2019-03-27T06:10:56.742Z,0.80
2019-03-27T06:16:01.480Z,1.20
2019-03-27T06:21:06.048Z,0.00
2019-03-27T06:26:10.677Z,2.40
2019-03-27T06:31:15.432Z,1.75
2019-03-27T06:36:20.069Z,1.00
2019-03-27T06:41:24.852Z,2.80
2019-03-27T06:46:29.588Z,1.40
2019-03-27T06:51:39.873Z,1.00
2019-03-27T06:56:40.536Z,1.60
2019-03-27T07:01:45.146Z,1.50
2019-03-27T07:06:49.749Z,0.60
2019-03-27T07:11:54.483Z,0.50
2019-03-27T07:16:59.153Z,0.40
2019-03-27T07:22:03.801Z,1.20
2019-03-27T07:27:08.446Z,1.00
2019-03-27T07:32:13.074Z,1.00
2019-03-27T07:37:17.673Z,1.00
2019-03-27T07:42:22.241Z,0.80
2019-03-27T07:47:26.893Z,0.00
2019-03-27T07:52:31.514Z,2.00
2019-03-27T07:57:36.389Z,1.75
2019-03-27T08:02:41.027Z,1.00
2019-03-27T08:07:45.712Z,2.25
2019-03-27T08:12:50.441Z,2.00
2019-03-27T08:17:55.133Z,1.40
2019-03-27T08:22:59.771Z,0.00
2019-03-27T08:28:04.448Z,1.00
2019-03-27T08:33:09.197Z,13.60
2019-03-27T08:38:15.160Z,11.20
2019-03-27T08:43:21.430Z,15.25
2019-03-27T08:48:26.140Z,10.75
2019-03-27T08:53:30.704Z,7.80
2019-03-27T08:58:35.244Z,9.20
2019-03-27T09:03:39.804Z,7.00
2019-03-27T09:08:44.343Z,9.75
2019-03-27T09:13:48.913Z,8.80
2019-03-27T09:18:53.475Z,5.20
2019-03-27T09:23:58.126Z,7.00
2019-03-27T09:29:02.806Z,6.00
2019-03-27T09:34:07.424Z,6.25
2019-03-27T09:39:12.134Z,5.75
2019-03-27T09:44:16.778Z,6.00
2019-03-27T09:49:21.312Z,6.20
2019-03-27T09:54:25.851Z,5.80
2019-03-27T09:59:30.478Z,4.80
2019-03-27T10:04:35.031Z,5.40
2019-03-27T10:09:39.591Z,5.00
2019-03-27T10:14:47.318Z,4.00
2019-03-27T10:20:02.722Z,6.25
2019-03-27T10:24:56.773Z,5.80
2019-03-27T10:30:01.331Z,5.00
2019-03-27T10:35:07.152Z,4.60
2019-03-27T10:40:11.964Z,5.50
2019-03-27T10:45:16.706Z,6.80
2019-03-27T10:50:21.538Z,7.40
2019-03-27T10:55:26.115Z,5.00
2019-03-27T11:00:30.830Z,5.25
2019-03-27T11:05:35.486Z,5.25
2019-03-27T11:10:40.115Z,6.00
2019-03-27T11:15:44.830Z,5.60
2019-03-27T11:20:49.394Z,5.75
2019-03-27T11:25:54.031Z,5.40
2019-03-27T11:30:58.669Z,6.50
2019-03-27T11:36:03.388Z,13.00
2019-03-27T11:41:08.121Z,11.75
2019-03-27T11:46:13.196Z,10.75
2019-03-27T11:51:17.832Z,7.75
2019-03-27T11:56:22.450Z,8.50
2019-03-27T12:01:38.952Z,8.00
2019-03-27T12:06:33.436Z,9.60
2019-03-27T12:11:38.122Z,9.00
2019-03-27T12:16:42.766Z,9.25
2019-03-27T12:21:47.417Z,9.50
2019-03-27T12:26:51.954Z,8.80
2019-03-27T12:31:56.621Z,9.25
2019-03-27T12:37:01.174Z,10.50
2019-03-27T12:42:05.792Z,7.00
2019-03-27T12:47:10.489Z,7.60
2019-03-27T12:52:15.176Z,6.40
2019-03-27T12:57:19.728Z,7.80
2019-03-27T13:02:24.351Z,8.50
2019-03-27T13:07:28.957Z,8.00
2019-03-27T13:12:33.509Z,7.75
2019-03-27T13:17:38.135Z,6.25
2019-03-27T13:22:42.755Z,6.25
2019-03-27T13:27:47.682Z,7.00
2019-03-27T13:32:52.393Z,5.50
2019-03-27T13:37:56.949Z,8.00
2019-03-27T13:43:01.496Z,7.00
2019-03-27T13:48:06.199Z,4.50
2019-03-27T13:53:10.764Z,5.60
2019-03-27T13:58:15.279Z,5.75
2019-03-27T14:03:19.808Z,5.40
2019-03-27T14:08:24.654Z,4.00
2019-03-27T14:13:29.274Z,4.75
2019-03-27T14:18:33.824Z,5.00
2019-03-27T14:23:38.554Z,4.60
2019-03-27T14:28:43.122Z,6.40
2019-03-27T14:33:47.765Z,6.00
2019-03-27T14:38:52.418Z,4.00
2019-03-27T14:43:56.958Z,4.40
2019-03-27T14:49:01.528Z,6.00
2019-03-27T14:54:06.368Z,3.00
2019-03-27T14:59:10.994Z,4.00
2019-03-27T15:04:15.707Z,4.00
2019-03-27T15:09:20.887Z,5.00
2019-03-27T15:14:25.583Z,5.00
2019-03-27T15:19:30.184Z,4.00
2019-03-27T15:24:34.904Z,4.75
2019-03-27T15:29:39.640Z,5.00
2019-03-27T15:34:44.379Z,5.00
2019-03-27T15:39:49.102Z,4.00
2019-03-27T15:44:53.879Z,3.00
2019-03-27T15:49:58.590Z,4.50
2019-03-27T15:55:03.568Z,4.00
2019-03-27T16:00:08.779Z,4.60
2019-03-27T16:05:13.568Z,3.40
2019-03-27T16:10:18.623Z,3.00
2019-03-27T16:15:23.344Z,2.00
2019-03-27T16:20:28.109Z,3.00
2019-03-27T16:25:32.674Z,3.00
2019-03-27T16:30:37.316Z,3.50
2019-03-27T16:35:41.887Z,2.40
2019-03-27T16:40:50.378Z,2.50
2019-03-27T16:45:55.160Z,2.20
2019-03-27T16:51:00.004Z,3.40
2019-03-27T16:56:04.784Z,3.40
2019-03-27T17:01:09.332Z,3.25
2019-03-27T17:06:14.826Z,2.00
2019-03-27T17:11:19.467Z,3.00
2019-03-27T17:16:24.177Z,2.80
2019-03-27T17:21:28.922Z,2.00
2019-03-27T17:26:33.687Z,2.25
2019-03-27T17:31:38.313Z,3.00
2019-03-27T17:36:42.926Z,3.00
2019-03-27T17:41:47.560Z,3.00
2019-03-27T17:46:52.200Z,3.00
2019-03-27T17:51:56.862Z,1.80
2019-03-27T17:57:01.397Z,1.50
2019-03-27T18:02:06.103Z,1.00
2019-03-27T18:07:10.737Z,2.00
2019-03-27T18:12:15.516Z,2.25
2019-03-27T18:17:20.143Z,1.60
2019-03-27T18:22:24.726Z,2.00
2019-03-27T18:27:29.403Z,3.00
2019-03-27T18:32:34.108Z,1.00
2019-03-27T18:37:38.737Z,1.00
2019-03-27T18:42:43.553Z,2.60
2019-03-27T18:47:48.088Z,2.20
2019-03-27T18:52:52.648Z,3.00
2019-03-27T18:58:00.308Z,2.50
2019-03-27T19:03:03.463Z,3.00
2019-03-27T19:08:08.129Z,2.20
2019-03-27T19:13:12.845Z,1.75
2019-03-27T19:18:17.452Z,2.25
2019-03-27T19:23:22.008Z,3.00
2019-03-27T19:28:26.589Z,2.50
2019-03-27T19:33:31.126Z,3.00
2019-03-27T19:38:35.971Z,2.40
2019-03-27T19:43:40.610Z,3.00
2019-03-27T19:48:45.152Z,1.75
2019-03-27T19:53:49.693Z,2.60
2019-03-27T19:59:02.084Z,1.00
2019-03-27T20:04:07.048Z,3.00
2019-03-27T20:09:11.644Z,2.00
2019-03-27T20:14:16.303Z,2.25
2019-03-27T20:19:20.881Z,2.00
2019-03-27T20:24:25.583Z,2.60
2019-03-27T20:29:30.114Z,2.50
2019-03-27T20:34:34.664Z,3.00
2019-03-27T20:39:42.434Z,1.50
2019-03-27T20:44:45.570Z,1.00
2019-03-27T20:49:50.125Z,1.00
2019-03-27T20:54:55.578Z,2.67
2019-03-27T21:00:00.394Z,1.00
2019-03-27T21:05:05.785Z,2.40
2019-03-27T21:10:11.030Z,1.00
2019-03-27T21:15:15.848Z,2.00
2019-03-27T21:20:20.411Z,2.00
2019-03-27T21:25:25.025Z,2.25
2019-03-27T21:30:29.593Z,2.00
2019-03-27T21:35:34.222Z,3.00
2019-03-27T21:40:38.827Z,2.60
2019-03-27T21:45:43.397Z,2.00
2019-03-27T21:50:48.118Z,0.75
2019-03-27T21:55:52.700Z,1.50
2019-03-27T22:00:57.271Z,1.75
2019-03-27T22:06:01.845Z,1.60
2019-03-27T22:11:06.501Z,3.00
2019-03-27T22:16:11.115Z,1.00
2019-03-27T22:21:15.941Z,1.60
2019-03-27T22:26:20.543Z,2.00
2019-03-27T22:31:25.221Z,1.00
2019-03-27T22:36:29.925Z,2.00
2019-03-27T22:41:34.547Z,2.75
2019-03-27T22:46:39.175Z,1.00
2019-03-27T22:51:43.911Z,1.40
2019-03-27T22:56:48.528Z,1.00
2019-03-27T23:01:53.309Z,1.50
2019-03-27T23:06:57.935Z,1.60
2019-03-27T23:12:02.503Z,2.00
2019-03-27T23:17:07.080Z,2.00
2019-03-27T23:22:11.678Z,1.00
2019-03-27T23:27:16.280Z,1.00
2019-03-27T23:32:20.870Z,1.00
2019-03-27T23:37:25.499Z,1.00
2019-03-27T23:42:30.039Z,0.40
2019-03-27T23:47:34.675Z,1.20
2019-03-27T23:52:39.248Z,0.00
2019-03-27T23:57:43.922Z,1.00
